Time;durP1;ratioP1;P1;durP2;ratioP2;P2;SDS_P1;SDS_P2;PMS_P1;PMS_P2;Temp;Humidity;BMP_temperature;BMP_pressure;BME280_temperature;BME280_humidity;BME280_pressure;Samples;Min_cycle;Max_cycle;Signal;HPM_P1;HPM_P2
2023/06/29 00:01:25;;;;;;;;;8.67;8.33;;;;;24.24;64.21;100548.19;5055947;28;45596;-76
2023/06/29 00:03:50;;;;;;;;;9.33;7.67;;;;;24.22;64.37;100550.91;5056771;28;45561;-76
2023/06/29 00:06:17;;;;;;;;;7.67;7.33;;;;;24.26;64.53;100555.22;5056716;28;45478;-76
2023/06/29 00:08:42;;;;;;;;;7.00;6.33;;;;;24.14;64.10;100547.56;5056457;28;45490;-76
2023/06/29 00:11:08;;;;;;;;;5.00;5.00;;;;;24.17;64.42;100545.69;5056207;28;46079;-76
2023/06/29 00:13:34;;;;;;;;;8.67;8.00;;;;;24.22;64.01;100556.22;5056097;28;45525;-76
2023/06/29 00:16:00;;;;;;;;;7.33;7.33;;;;;24.18;64.59;100538.56;5055803;28;45505;-76
2023/06/29 00:18:30;;;;;;;;;6.33;6.00;;;;;24.15;64.31;100541.28;5056350;28;45594;-75
2023/06/29 00:20:56;;;;;;;;;6.67;6.67;;;;;24.13;64.51;100551.13;5055850;28;45450;-74
2023/06/29 00:23:24;;;;;;;;;9.33;8.00;;;;;24.14;65.03;100550.22;5056328;28;45358;-76
2023/06/29 00:25:52;;;;;;;;;9.00;8.00;;;;;24.09;64.87;100539.66;5055800;28;45358;-76
2023/06/29 00:28:17;;;;;;;;;8.00;8.00;;;;;24.17;64.46;100550.13;5038254;28;45657;-75
2023/06/29 00:30:43;;;;;;;;;7.00;6.00;;;;;24.19;64.54;100548.28;5056825;28;46167;-76
2023/06/29 00:33:08;;;;;;;;;8.00;7.33;;;;;24.14;64.78;100529.75;5055541;28;45477;-76
2023/06/29 00:35:34;;;;;;;;;9.00;9.00;;;;;24.13;65.36;100528.00;5056477;28;45442;-76
2023/06/29 00:38:00;;;;;;;;;7.67;7.00;;;;;24.24;64.99;100537.50;5051053;28;45306;-76
2023/06/29 00:40:26;;;;;;;;;8.00;8.00;;;;;24.25;64.92;100534.78;5054445;28;46001;-76
2023/06/29 00:42:52;;;;;;;;;8.33;8.00;;;;;24.23;64.79;100531.28;5055397;28;45716;-76
2023/06/29 00:45:18;;;;;;;;;6.33;6.33;;;;;24.18;65.00;100533.22;5056163;28;45508;-76
2023/06/29 00:47:44;;;;;;;;;8.00;8.00;;;;;24.07;64.66;100529.94;5056476;28;45383;-76
2023/06/29 00:50:10;;;;;;;;;7.67;7.67;;;;;24.13;65.13;100529.78;5055936;28;45364;-74
2023/06/29 00:52:36;;;;;;;;;11.33;9.00;;;;;24.19;64.80;100532.28;5055260;28;45528;-73
2023/06/29 00:55:02;;;;;;;;;8.33;8.33;;;;;24.22;65.10;100534.88;5051048;28;45659;-74
2023/06/29 00:57:29;;;;;;;;;8.33;8.00;;;;;24.24;64.50;100532.19;5036034;28;45502;-74
2023/06/29 00:59:59;;;;;;;;;9.67;8.33;;;;;24.25;64.15;100533.91;5055734;28;45601;-75
2023/06/29 01:02:25;;;;;;;;;7.67;7.67;;;;;24.17;64.41;100520.75;5038524;28;45487;-75
2023/06/29 01:04:51;;;;;;;;;9.67;8.33;;;;;24.13;65.07;100524.44;5063103;28;45457;-73
2023/06/29 01:07:52;;;;;;;;;10.00;8.00;;;;;24.16;65.02;100519.03;5072031;28;45539;-74
2023/06/29 01:10:24;;;;;;;;;8.67;8.00;;;;;24.08;65.32;100524.56;4993001;28;45495;-74
2023/06/29 01:12:51;;;;;;;;;9.33;8.00;;;;;24.14;65.06;100523.53;5026062;28;45576;-75
2023/06/29 01:15:18;;;;;;;;;9.00;8.00;;;;;24.13;64.68;100524.44;5023665;28;45395;-74
2023/06/29 01:17:47;;;;;;;;;8.00;7.33;;;;;24.15;64.67;100525.28;5038004;28;45498;-74
2023/06/29 01:20:14;;;;;;;;;8.67;8.00;;;;;24.12;65.07;100525.38;5055518;28;45630;-75
2023/06/29 01:22:46;;;;;;;;;8.33;7.00;;;;;24.10;64.90;100520.06;5055308;28;45639;-74
2023/06/29 01:25:12;;;;;;;;;7.33;7.00;;;;;24.05;65.13;100510.41;5055511;28;45486;-73
2023/06/29 01:27:43;;;;;;;;;7.33;7.33;;;;;24.11;64.83;100519.13;5048224;28;45569;-74
2023/06/29 01:30:10;;;;;;;;;9.00;8.00;;;;;24.09;65.27;100517.44;5055454;28;45414;-76
2023/06/29 01:32:35;;;;;;;;;8.33;8.00;;;;;23.98;65.85;100505.25;5058937;28;45589;-76
2023/06/29 01:35:04;;;;;;;;;7.67;7.67;;;;;24.00;65.73;100518.56;5059192;28;45522;-76
2023/06/29 01:37:55;;;;;;;;;7.00;7.00;;;;;24.04;65.51;100517.56;5058948;28;45476;-74
2023/06/29 01:40:26;;;;;;;;;9.00;8.00;;;;;24.05;65.74;100516.63;5057787;28;45636;-76
2023/06/29 01:42:55;;;;;;;;;8.67;7.33;;;;;24.08;65.50;100513.88;5058876;28;45455;-76
2023/06/29 01:45:22;;;;;;;;;8.00;8.00;;;;;24.06;65.71;100515.72;5046179;28;45608;-76
2023/06/29 01:47:47;;;;;;;;;7.67;7.00;;;;;23.99;65.57;100511.44;5056412;28;45521;-76
2023/06/29 01:50:16;;;;;;;;;10.33;10.00;;;;;23.95;65.56;100513.31;5058985;28;45236;-76
2023/06/29 01:52:42;;;;;;;;;8.00;8.00;;;;;23.97;65.08;100516.84;5039126;28;45581;-76
2023/06/29 01:55:09;;;;;;;;;8.00;7.00;;;;;23.97;65.39;100515.97;5054203;28;45913;-76
2023/06/29 01:57:35;;;;;;;;;8.00;8.00;;;;;23.96;65.17;100511.56;5055858;28;45462;-75
2023/06/29 02:00:00;;;;;;;;;8.33;8.33;;;;;23.97;65.27;100521.28;5040941;28;47202;-76
2023/06/29 02:02:26;;;;;;;;;8.67;8.00;;;;;23.91;65.07;100502.78;5059211;28;45293;-74
2023/06/29 02:04:51;;;;;;;;;7.00;7.00;;;;;23.97;65.13;100511.53;5058961;28;45568;-76
2023/06/29 02:07:17;;;;;;;;;9.33;8.00;;;;;23.95;65.24;100505.31;5058482;28;45528;-76
2023/06/29 02:09:43;;;;;;;;;8.00;8.00;;;;;23.93;65.45;100506.28;5053555;28;45458;-76
2023/06/29 02:12:09;;;;;;;;;8.00;7.67;;;;;24.03;65.62;100515.78;5030200;28;45632;-76
2023/06/29 02:14:35;;;;;;;;;9.00;7.00;;;;;24.00;65.60;100502.53;5040666;28;45622;-76
2023/06/29 02:17:00;;;;;;;;;7.33;7.33;;;;;23.98;65.28;100497.25;5059144;28;45391;-76
2023/06/29 02:19:26;;;;;;;;;9.33;8.00;;;;;24.00;64.85;100495.41;5058153;28;46095;-75
2023/06/29 02:21:51;;;;;;;;;9.00;9.00;;;;;23.95;65.23;100499.13;5058225;28;45304;-76
2023/06/29 02:24:17;;;;;;;;;8.00;8.00;;;;;23.93;65.42;100498.28;5058369;28;45230;-76
2023/06/29 02:26:42;;;;;;;;;8.67;8.67;;;;;23.94;65.38;100503.56;5053054;28;45649;-76
2023/06/29 02:29:08;;;;;;;;;9.67;8.00;;;;;23.93;65.36;100503.63;5050297;28;46106;-76
2023/06/29 02:31:33;;;;;;;;;9.67;9.00;;;;;23.96;65.63;100501.75;5039673;28;45481;-74
2023/06/29 02:33:59;;;;;;;;;10.00;10.00;;;;;23.96;65.24;100504.41;5058311;28;45469;-76
2023/06/29 02:36:24;;;;;;;;;8.33;7.33;;;;;23.98;65.22;100496.38;5058142;28;45617;-76
2023/06/29 02:38:50;;;;;;;;;8.00;8.00;;;;;23.92;65.39;100477.88;5057686;28;46489;-76
2023/06/29 02:41:15;;;;;;;;;8.00;8.00;;;;;23.99;65.18;100500.78;5057676;28;45414;-76
2023/06/29 02:43:41;;;;;;;;;9.33;8.33;;;;;23.98;65.26;100486.56;5057639;28;45377;-76
2023/06/29 02:46:07;;;;;;;;;8.00;8.00;;;;;24.01;65.59;100494.50;5058188;28;45520;-76
2023/06/29 02:48:32;;;;;;;;;8.00;7.00;;;;;23.98;65.33;100496.38;5040263;28;46200;-76
2023/06/29 02:50:58;;;;;;;;;7.67;7.00;;;;;23.96;65.20;100501.75;5057536;28;45568;-76
2023/06/29 02:53:23;;;;;;;;;7.00;7.00;;;;;23.99;64.76;100500.78;5036314;28;45380;-76
2023/06/29 02:55:49;;;;;;;;;7.00;7.00;;;;;23.98;65.32;100505.25;5041375;28;45561;-75
2023/06/29 02:58:14;;;;;;;;;9.33;8.00;;;;;23.97;64.99;100506.19;5057568;28;45704;-76
2023/06/29 03:00:40;;;;;;;;;9.33;8.33;;;;;23.95;65.54;100502.66;5057510;28;45609;-76
2023/06/29 03:03:05;;;;;;;;;8.00;7.33;;;;;23.90;65.55;100496.56;5057885;28;45390;-76
2023/06/29 03:05:31;;;;;;;;;8.67;8.67;;;;;23.91;65.53;100508.09;5058944;28;45510;-76
2023/06/29 03:07:56;;;;;;;;;10.33;9.00;;;;;23.82;66.36;100493.22;5039245;28;46870;-76
2023/06/29 03:10:22;;;;;;;;;8.33;7.00;;;;;23.83;66.36;100500.31;5057217;28;45498;-76
2023/06/29 03:12:47;;;;;;;;;8.00;7.00;;;;;23.86;65.91;100497.56;5057337;28;45465;-76
2023/06/29 03:15:13;;;;;;;;;7.00;7.00;;;;;23.90;66.15;100491.25;5039124;28;45407;-76
2023/06/29 03:17:39;;;;;;;;;9.00;8.00;;;;;23.92;65.79;100504.53;5057509;28;46138;-76
2023/06/29 03:20:06;;;;;;;;;8.00;6.67;;;;;23.92;66.40;100496.53;5057655;28;45489;-76
2023/06/29 03:22:35;;;;;;;;;8.67;8.33;;;;;23.89;66.13;100488.59;5057229;28;45465;-76
2023/06/29 03:25:00;;;;;;;;;7.00;7.00;;;;;23.93;66.21;100504.47;5056998;28;45530;-75
2023/06/29 03:27:25;;;;;;;;;8.33;7.00;;;;;23.85;66.44;100492.25;5056742;28;46086;-75
2023/06/29 03:29:55;;;;;;;;;10.00;10.00;;;;;23.92;65.98;100496.53;5056911;28;45384;-76
2023/06/29 03:32:21;;;;;;;;;9.00;8.00;;;;;23.96;66.12;100501.75;5057219;28;45458;-76
2023/06/29 03:34:46;;;;;;;;;8.00;8.00;;;;;23.94;65.94;100492.91;5055044;28;45899;-75
2023/06/29 03:37:12;;;;;;;;;10.67;9.00;;;;;23.90;66.05;100496.56;5056860;28;46223;-75
2023/06/29 03:39:37;;;;;;;;;9.00;9.00;;;;;23.82;66.11;100486.09;5055856;28;45359;-74
2023/06/29 03:42:03;;;;;;;;;7.00;7.00;;;;;23.78;66.38;100481.75;5057102;28;45629;-76
2023/06/29 03:44:28;;;;;;;;;10.00;8.33;;;;;23.87;66.13;100493.97;5056436;28;45335;-76
2023/06/29 03:46:54;;;;;;;;;8.33;8.00;;;;;23.81;66.02;100475.47;5056326;28;46205;-76
2023/06/29 03:49:19;;;;;;;;;9.00;8.00;;;;;23.89;66.54;100494.81;5056201;28;45359;-76
2023/06/29 03:51:45;;;;;;;;;9.00;9.00;;;;;23.89;66.53;100491.28;5056389;28;45554;-76
2023/06/29 03:54:10;;;;;;;;;10.00;9.00;;;;;23.86;65.87;100494.91;5057213;28;45304;-76
2023/06/29 03:56:36;;;;;;;;;9.33;9.00;;;;;23.88;65.96;100500.22;5056409;28;46133;-76
2023/06/29 03:59:01;;;;;;;;;8.00;8.00;;;;;23.84;66.35;100496.72;5056839;28;45289;-76
2023/06/29 04:01:27;;;;;;;;;9.00;8.33;;;;;23.86;66.09;100494.03;5057028;28;45571;-76
2023/06/29 04:03:53;;;;;;;;;11.67;7.33;;;;;23.82;66.37;100490.56;5057577;28;45554;-76
2023/06/29 04:06:19;;;;;;;;;8.00;8.00;;;;;23.87;66.53;100501.09;5056311;28;45520;-76
2023/06/29 04:08:44;;;;;;;;;9.00;8.00;;;;;23.87;65.68;100504.63;5056484;28;45489;-77
2023/06/29 04:11:11;;;;;;;;;9.00;9.00;;;;;23.81;66.19;100491.47;5056677;28;45498;-76
2023/06/29 04:13:37;;;;;;;;;8.67;8.00;;;;;23.83;66.39;100505.63;5057034;28;45938;-76
2023/06/29 04:16:02;;;;;;;;;9.33;9.00;;;;;23.75;66.17;100496.91;5055488;28;45502;-74
2023/06/29 04:18:28;;;;;;;;;8.00;8.00;;;;;23.63;66.61;100477.66;5056385;28;45548;-74
2023/06/29 04:20:54;;;;;;;;;8.00;7.00;;;;;23.72;66.62;100489.88;5056002;28;45317;-74
2023/06/29 04:23:19;;;;;;;;;8.33;8.00;;;;;23.82;66.66;100503.91;5055747;28;45536;-74
2023/06/29 04:25:45;;;;;;;;;7.67;7.00;;;;;23.76;66.53;100490.69;5056307;28;46025;-74
2023/06/29 04:28:13;;;;;;;;;8.00;7.33;;;;;23.78;66.69;100499.56;5056148;28;45498;-74
2023/06/29 04:30:40;;;;;;;;;8.67;8.67;;;;;23.77;66.68;100503.09;5055989;28;45593;-74
2023/06/29 04:33:09;;;;;;;;;9.33;9.33;;;;;23.69;67.04;100491.75;5037993;28;45633;-74
2023/06/29 04:35:43;;;;;;;;;8.00;8.00;;;;;23.73;66.97;100502.28;5056723;28;45512;-73
2023/06/29 04:38:09;;;;;;;;;9.67;8.00;;;;;23.61;66.88;100483.94;5056384;28;45608;-73
2023/06/29 04:40:35;;;;;;;;;11.67;11.33;;;;;23.72;67.05;100499.69;5055760;28;45473;-74
2023/06/29 04:43:02;;;;;;;;;10.00;9.67;;;;;23.71;66.93;100495.25;5055800;28;45407;-74
2023/06/29 04:45:28;;;;;;;;;8.00;8.00;;;;;23.70;67.20;100496.19;5055822;28;45430;-74
2023/06/29 04:47:56;;;;;;;;;5.33;4.33;;;;;23.66;67.37;100486.50;5055875;28;45565;-75
2023/06/29 04:50:25;;;;;;;;;9.00;8.67;;;;;23.75;67.51;100496.91;5056133;28;45373;-74
2023/06/29 04:52:55;;;;;;;;;9.33;9.33;;;;;23.75;67.77;100502.25;5055428;28;45492;-74
2023/06/29 04:55:21;;;;;;;;;10.00;9.00;;;;;23.73;67.11;100498.75;5036923;28;45448;-73
2023/06/29 04:57:47;;;;;;;;;10.00;8.33;;;;;23.74;67.09;100487.19;5055045;28;45581;-74
2023/06/29 05:00:14;;;;;;;;;8.33;7.33;;;;;23.82;66.83;100495.91;5037008;28;45436;-74
2023/06/29 05:02:40;;;;;;;;;9.33;8.67;;;;;23.81;66.73;100503.03;5041693;28;45625;-74
2023/06/29 05:05:06;;;;;;;;;9.67;8.00;;;;;23.77;67.03;100496.00;5058668;28;45557;-73
2023/06/29 05:07:31;;;;;;;;;11.33;10.00;;;;;23.82;66.86;100499.44;5054942;28;45469;-74
2023/06/29 05:09:58;;;;;;;;;10.00;10.00;;;;;23.75;67.21;100489.78;5048314;28;45464;-74
2023/06/29 05:12:24;;;;;;;;;11.00;11.00;;;;;23.74;67.84;100500.53;5041735;28;45494;-74
2023/06/29 05:14:50;;;;;;;;;11.00;9.00;;;;;23.67;67.38;100498.91;5058740;28;46220;-73
2023/06/29 05:17:15;;;;;;;;;10.00;8.33;;;;;23.71;67.09;100485.44;5058909;28;45426;-74
2023/06/29 05:19:41;;;;;;;;;7.00;6.67;;;;;23.81;66.71;100494.13;5059136;28;45784;-72
2023/06/29 05:22:06;;;;;;;;;7.67;6.00;;;;;23.82;67.10;100495.91;5059426;28;45334;-74
2023/06/29 05:24:32;;;;;;;;;9.00;8.00;;;;;23.73;67.08;100488.09;5058500;28;45984;-73
2023/06/29 05:26:57;;;;;;;;;9.00;9.00;;;;;23.78;67.35;100496.91;5058877;28;45392;-74
2023/06/29 05:29:23;;;;;;;;;9.33;8.67;;;;;23.74;68.09;100500.53;5038189;28;45557;-74
2023/06/29 05:31:48;;;;;;;;;11.00;10.00;;;;;23.72;68.17;100510.34;5032105;28;45505;-74
2023/06/29 05:34:14;;;;;;;;;10.00;9.33;;;;;23.72;68.14;100505.03;5041107;28;47922;-74
2023/06/29 05:36:39;;;;;;;;;14.00;11.67;;;;;23.68;68.01;100490.00;5040314;28;45502;-75
2023/06/29 05:39:06;;;;;;;;;9.67;9.33;;;;;23.71;68.16;100489.91;5058609;28;45391;-74
2023/06/29 05:41:32;;;;;;;;;7.67;7.67;;;;;23.67;67.65;100498.91;5043386;28;45324;-74
2023/06/29 05:43:57;;;;;;;;;10.00;9.33;;;;;23.74;66.99;100511.19;5045674;28;45626;-73
2023/06/29 05:46:23;;;;;;;;;12.33;11.00;;;;;23.76;67.58;100515.56;5056897;28;45566;-74
2023/06/29 05:48:48;;;;;;;;;11.67;11.33;;;;;23.79;67.51;100509.31;5048835;28;45276;-73
2023/06/29 05:51:14;;;;;;;;;12.00;10.00;;;;;23.82;67.24;100514.56;5058518;28;45391;-73
2023/06/29 05:53:40;;;;;;;;;10.00;10.00;;;;;23.81;67.13;100518.13;5057850;28;45419;-73
2023/06/29 05:56:05;;;;;;;;;10.67;9.67;;;;;23.77;67.94;100508.44;5040171;28;45721;-75
2023/06/29 05:58:31;;;;;;;;;10.00;10.00;;;;;23.80;67.64;100517.28;5058684;28;45483;-75
2023/06/29 06:00:57;;;;;;;;;10.67;10.00;;;;;23.84;67.78;100514.53;5058880;28;45418;-74
2023/06/29 06:03:23;;;;;;;;;9.00;9.00;;;;;23.76;67.32;100504.03;5058745;28;45973;-74
2023/06/29 06:05:49;;;;;;;;;10.33;10.00;;;;;23.77;67.64;100503.09;5057797;28;45619;-75
2023/06/29 06:08:14;;;;;;;;;10.00;9.00;;;;;23.86;67.28;100510.03;5037602;28;45488;-74
2023/06/29 06:10:40;;;;;;;;;10.00;9.00;;;;;23.89;66.97;100502.81;5048100;28;45332;-73
2023/06/29 06:13:05;;;;;;;;;10.00;9.67;;;;;23.98;66.95;100515.94;5057896;28;45650;-75
2023/06/29 06:15:31;;;;;;;;;13.00;11.67;;;;;24.01;66.44;100512.28;5057403;28;45237;-73
2023/06/29 06:17:56;;;;;;;;;11.00;11.00;;;;;24.05;66.54;100510.41;5058389;28;45566;-74
2023/06/29 06:20:22;;;;;;;;;10.67;10.67;;;;;24.00;66.88;100514.09;5058881;28;45482;-72
2023/06/29 06:22:47;;;;;;;;;11.00;11.00;;;;;24.01;66.70;100526.53;5058190;28;46027;-73
2023/06/29 06:25:17;;;;;;;;;10.67;10.00;;;;;23.99;67.10;100511.44;5039790;28;45957;-73
2023/06/29 06:27:43;;;;;;;;;14.67;13.00;;;;;24.05;67.05;100519.28;5057927;28;45525;-73
2023/06/29 06:30:09;;;;;;;;;12.67;9.67;;;;;24.04;67.00;100519.38;5058288;28;45291;-73
2023/06/29 06:32:38;;;;;;;;;11.00;10.00;;;;;24.08;67.03;100524.56;5057545;28;45449;-73
2023/06/29 06:35:05;;;;;;;;;8.67;8.67;;;;;24.02;66.46;100528.28;5057750;28;45402;-72
2023/06/29 06:37:31;;;;;;;;;9.00;9.00;;;;;24.07;66.66;100529.94;5057836;28;45440;-73
2023/06/29 06:39:56;;;;;;;;;10.00;9.00;;;;;24.02;67.42;100528.28;5057126;28;45565;-73
2023/06/29 06:42:22;;;;;;;;;11.33;10.00;;;;;24.08;67.35;100535.25;5041827;28;45497;-73
2023/06/29 06:44:55;;;;;;;;;9.67;8.67;;;;;23.99;66.99;100538.13;5058296;28;45397;-74
2023/06/29 06:47:21;;;;;;;;;9.67;9.67;;;;;23.95;67.42;100529.31;5058318;28;45307;-73
2023/06/29 06:49:47;;;;;;;;;7.67;7.67;;;;;23.96;66.47;100535.56;5055143;28;45504;-73
2023/06/29 06:52:13;;;;;;;;;10.00;9.67;;;;;23.97;67.10;100532.88;5058261;28;45594;-73
2023/06/29 06:54:38;;;;;;;;;10.00;9.00;;;;;24.02;66.91;100543.41;5057699;28;45427;-73
2023/06/29 06:57:04;;;;;;;;;10.00;9.00;;;;;23.98;66.64;100537.28;5057470;28;45721;-74
2023/06/29 06:59:29;;;;;;;;;11.00;10.00;;;;;23.97;66.73;100531.97;5039335;28;45339;-73
2023/06/29 07:01:55;;;;;;;;;9.67;9.00;;;;;23.99;66.66;100548.81;5057148;28;46071;-72
2023/06/29 07:04:20;;;;;;;;;10.00;9.33;;;;;23.94;67.11;100534.72;5057402;28;45361;-73
2023/06/29 07:06:46;;;;;;;;;9.00;8.00;;;;;23.95;67.46;100544.47;5058182;28;45698;-72
2023/06/29 07:09:12;;;;;;;;;12.00;11.00;;;;;23.96;67.31;100555.09;5039381;28;45314;-75
2023/06/29 07:11:38;;;;;;;;;10.00;10.00;;;;;23.95;67.31;100539.13;5053036;28;47533;-74
2023/06/29 07:14:04;;;;;;;;;12.67;10.33;;;;;24.00;67.61;100551.44;5046046;28;45349;-74
2023/06/29 07:16:30;;;;;;;;;8.67;8.67;;;;;24.01;67.28;100558.56;5057921;28;45564;-75
2023/06/29 07:19:07;;;;;;;;;9.00;8.67;;;;;24.02;66.96;100544.28;5057053;28;45507;-75
2023/06/29 07:21:33;;;;;;;;;11.00;11.00;;;;;24.09;66.60;100555.66;5052902;28;47802;-76
2023/06/29 07:23:58;;;;;;;;;7.00;7.00;;;;;24.14;65.21;100555.56;5048540;28;45569;-76
2023/06/29 07:26:24;;;;;;;;;10.00;8.00;;;;;24.10;65.96;100551.22;5052405;28;45410;-76
2023/06/29 07:28:50;;;;;;;;;9.00;9.00;;;;;24.12;66.02;100557.41;5054287;28;45495;-74
2023/06/29 07:31:16;;;;;;;;;6.67;6.67;;;;;24.06;65.77;100542.41;5058042;28;46096;-76
2023/06/29 07:33:42;;;;;;;;;7.00;7.00;;;;;24.13;65.85;100556.47;5056484;28;45426;-76
2023/06/29 07:36:08;;;;;;;;;9.00;9.00;;;;;24.08;66.15;100559.25;5039780;28;45458;-75
2023/06/29 07:38:34;;;;;;;;;9.00;8.00;;;;;23.98;66.10;100547.06;5058105;28;45478;-75
2023/06/29 07:41:00;;;;;;;;;10.67;10.00;;;;;24.05;66.31;100559.31;5057323;28;45519;-75
2023/06/29 07:43:25;;;;;;;;;7.00;7.00;;;;;24.09;66.12;100570.81;5057915;28;45529;-73
2023/06/29 07:45:51;;;;;;;;;8.00;8.00;;;;;24.09;66.17;100561.00;5058222;28;45341;-73
2023/06/29 07:48:17;;;;;;;;;14.33;14.00;;;;;24.18;66.14;100571.44;5058247;28;45324;-73
2023/06/29 07:50:42;;;;;;;;;10.33;10.33;;;;;24.18;66.61;100566.09;5057840;28;46006;-74
2023/06/29 07:53:08;;;;;;;;;13.67;13.67;;;;;24.16;66.83;100567.94;5057515;28;45308;-72
2023/06/29 07:55:34;;;;;;;;;16.67;14.67;;;;;24.00;68.07;100567.47;5057187;28;45471;-73
2023/06/29 07:58:00;;;;;;;;;12.00;10.00;;;;;23.88;68.68;100556.22;5057139;28;45467;-73
2023/06/29 08:00:26;;;;;;;;;11.00;9.00;;;;;23.89;68.65;100550.81;5051008;28;47845;-76
2023/06/29 08:02:51;;;;;;;;;10.67;10.00;;;;;24.07;68.01;100576.16;5034736;28;45728;-75
2023/06/29 08:05:17;;;;;;;;;10.00;9.00;;;;;24.19;67.28;100573.22;5038348;28;45636;-75
2023/06/29 08:07:43;;;;;;;;;8.33;8.33;;;;;24.29;67.19;100575.63;5056632;28;45411;-74
2023/06/29 08:10:09;;;;;;;;;10.00;9.00;;;;;24.42;66.38;100574.38;5045234;28;46279;-72
2023/06/29 08:12:35;;;;;;;;;10.33;10.33;;;;;24.52;65.93;100575.91;5051345;28;45345;-72
2023/06/29 08:15:00;;;;;;;;;6.00;6.00;;;;;24.60;65.83;100578.38;5030880;28;45537;-71
2023/06/29 08:17:26;;;;;;;;;9.67;9.00;;;;;24.64;65.31;100565.84;5054128;28;45482;-73
2023/06/29 08:19:51;;;;;;;;;9.00;9.00;;;;;24.69;64.78;100578.16;5054903;28;45535;-73
2023/06/29 08:22:17;;;;;;;;;7.00;7.00;;;;;24.69;64.59;100567.47;5054430;28;45485;-70
2023/06/29 08:24:43;;;;;;;;;8.33;7.67;;;;;24.64;64.96;100561.34;5055442;28;45849;-71
2023/06/29 08:27:09;;;;;;;;;10.00;7.00;;;;;24.59;64.45;100557.91;5053313;28;45577;-74
2023/06/29 08:29:34;;;;;;;;;8.00;8.00;;;;;24.53;64.14;100555.44;5055331;28;45410;-74
2023/06/29 08:32:00;;;;;;;;;8.00;7.33;;;;;24.56;64.66;100566.03;5055010;28;45390;-74
2023/06/29 08:34:26;;;;;;;;;6.33;6.33;;;;;24.54;64.09;100560.72;5043228;28;45849;-73
2023/06/29 08:36:51;;;;;;;;;7.00;7.00;;;;;24.60;64.02;100559.69;5054965;28;45577;-73
2023/06/29 08:39:17;;;;;;;;;8.00;7.33;;;;;24.69;63.46;100562.13;5044813;28;45917;-74
2023/06/29 08:41:43;;;;;;;;;8.67;7.67;;;;;24.72;63.26;100551.31;5034367;28;45372;-74
2023/06/29 08:44:09;;;;;;;;;6.67;6.00;;;;;24.71;63.40;100562.94;5053208;28;45429;-74
2023/06/29 08:46:37;;;;;;;;;8.00;7.00;;;;;24.71;63.40;100560.28;5054638;28;45501;-73
2023/06/29 08:49:06;;;;;;;;;8.00;8.00;;;;;24.84;63.29;100555.44;5037800;28;46212;-75
2023/06/29 08:51:34;;;;;;;;;10.00;9.00;;;;;24.92;63.79;100549.88;5049878;28;45863;-74
2023/06/29 08:54:01;;;;;;;;;7.00;7.00;;;;;24.98;63.25;100560.38;5048534;28;45649;-76
2023/06/29 08:56:28;;;;;;;;;9.00;8.00;;;;;25.06;62.74;100563.69;5031241;28;45635;-73
2023/06/29 08:58:55;;;;;;;;;7.33;6.00;;;;;24.98;62.84;100544.34;5046330;28;46492;-74
2023/06/29 09:01:22;;;;;;;;;8.00;7.33;;;;;24.98;62.91;100552.38;5054775;28;45387;-76
2023/06/29 09:03:49;;;;;;;;;8.67;7.00;;;;;24.99;62.64;100562.16;5055072;28;45823;-74
2023/06/29 09:06:15;;;;;;;;;10.00;10.00;;;;;24.92;63.42;100569.44;5050390;28;46540;-75
2023/06/29 09:08:40;;;;;;;;;9.33;8.33;;;;;24.87;63.29;100567.81;5049583;28;45826;-71
2023/06/29 09:11:06;;;;;;;;;10.50;8.00;;;;;24.95;63.11;100568.50;5042466;28;45769;-72
2023/06/29 09:13:33;;;;;;;;;10.67;9.67;;;;;25.00;63.69;100563.88;5045958;28;45634;-73
2023/06/29 09:16:00;;;;;;;;;8.00;7.00;;;;;25.07;63.25;100562.81;5055313;28;45814;-73
2023/06/29 09:18:27;;;;;;;;;9.00;8.33;;;;;25.12;63.28;100566.19;5052202;28;46062;-72
2023/06/29 09:20:56;;;;;;;;;7.33;7.33;;;;;25.22;63.19;100565.97;5041448;28;45387;-72
2023/06/29 09:23:25;;;;;;;;;8.00;8.00;;;;;25.24;62.71;100559.63;5053360;28;45606;-72
2023/06/29 09:25:54;;;;;;;;;5.33;3.67;;;;;25.24;62.04;100556.97;5055517;28;45493;-73
2023/06/29 09:28:19;;;;;;;;;7.67;7.67;;;;;25.22;62.43;100563.28;5054370;28;46140;-73
2023/06/29 09:30:46;;;;;;;;;10.00;8.33;;;;;25.20;62.16;100558.81;5055202;28;45269;-73
2023/06/29 09:33:13;;;;;;;;;9.00;8.00;;;;;25.36;61.67;100550.34;5055277;28;45407;-74
2023/06/29 09:35:47;;;;;;;;;8.00;7.00;;;;;25.82;61.18;100556.91;5055151;28;45463;-74
2023/06/29 09:38:16;;;;;;;;;7.33;6.67;;;;;26.16;60.41;100571.84;5054584;28;45454;-74
2023/06/29 09:40:49;;;;;;;;;6.33;6.33;;;;;26.41;58.75;100566.53;5045649;28;45582;-73
2023/06/29 09:43:20;;;;;;;;;8.33;7.33;;;;;26.68;58.20;100567.38;5054622;28;45340;-73
2023/06/29 09:45:46;;;;;;;;;7.00;6.67;;;;;26.95;57.76;100561.91;5039886;28;45788;-72
2023/06/29 09:48:13;;;;;;;;;7.33;6.67;;;;;27.27;56.94;100554.47;5055752;28;45379;-73
2023/06/29 09:50:42;;;;;;;;;8.33;7.67;;;;;27.65;55.54;100568.16;5046580;28;45505;-71
2023/06/29 09:53:09;;;;;;;;;8.67;6.67;;;;;28.07;54.71;100565.56;5055104;28;45759;-75
2023/06/29 09:55:37;;;;;;;;;9.00;8.00;;;;;28.56;52.95;100560.75;5056702;28;45574;-73
2023/06/29 09:58:03;;;;;;;;;6.67;6.00;;;;;29.02;52.49;100555.09;5056902;28;45582;-72
2023/06/29 10:00:29;;;;;;;;;6.00;6.00;;;;;29.47;50.03;100558.41;5055621;28;45549;-72
2023/06/29 10:02:55;;;;;;;;;9.67;7.67;;;;;29.66;50.99;100555.66;5046619;28;45470;-73
2023/06/29 10:05:21;;;;;;;;;8.00;7.00;;;;;30.03;50.02;100560.09;5058998;28;46057;-73
2023/06/29 10:07:47;;;;;;;;;9.00;8.00;;;;;30.47;49.67;100556.94;5045089;28;45818;-73
2023/06/29 10:10:15;;;;;;;;;6.00;5.33;;;;;30.53;47.74;100569.25;5057088;28;45425;-72
2023/06/29 10:12:41;;;;;;;;;7.67;7.00;;;;;30.41;48.28;100559.09;5040757;28;45498;-73
2023/06/29 10:15:13;;;;;;;;;10.33;9.00;;;;;30.30;48.91;100570.41;5057626;28;45517;-73
2023/06/29 10:17:55;;;;;;;;;9.67;8.00;;;;;30.30;48.42;100556.94;5045881;28;47619;-72
2023/06/29 10:20:25;;;;;;;;;19.00;17.67;;;;;30.22;49.19;100560.03;5056595;28;45378;-73
2023/06/29 10:22:52;;;;;;;;;7.67;7.67;;;;;30.45;48.65;100571.47;5038867;28;45492;-73
2023/06/29 10:25:21;;;;;;;;;14.33;13.67;;;;;30.52;48.47;100564.78;5038707;28;45410;-74
2023/06/29 10:27:49;;;;;;;;;10.00;9.00;;;;;30.50;48.18;100564.00;5056118;28;46173;-73
2023/06/29 10:30:20;;;;;;;;;8.00;7.00;;;;;30.52;47.64;100562.09;5043619;28;45484;-73
2023/06/29 10:32:53;;;;;;;;;9.00;8.67;;;;;30.39;47.79;100561.88;5055530;28;45536;-77
2023/06/29 10:35:22;;;;;;;;;11.33;10.33;;;;;30.40;47.79;100563.63;5055200;28;45928;-74
2023/06/29 10:37:49;;;;;;;;;8.00;8.00;;;;;30.37;46.44;100563.78;5042007;28;47645;-74
2023/06/29 10:40:18;;;;;;;;;9.00;8.00;;;;;30.15;46.57;100558.59;5054014;28;45458;-74
2023/06/29 10:42:43;;;;;;;;;9.33;7.00;;;;;30.32;48.59;100560.44;5057446;28;45676;-74
2023/06/29 10:45:09;;;;;;;;;8.00;7.67;;;;;30.69;47.36;100559.38;5057366;28;45721;-74
2023/06/29 10:47:39;;;;;;;;;7.00;7.00;;;;;30.70;47.10;100555.72;5057777;28;45649;-74
2023/06/29 10:50:11;;;;;;;;;12.00;11.67;;;;;30.80;46.93;100556.09;5039225;28;45761;-74
2023/06/29 10:52:37;;;;;;;;;9.67;9.00;;;;;30.95;46.83;100564.34;5057017;28;45507;-74
2023/06/29 10:55:39;;;;;;;;;9.33;8.33;;;;;30.97;45.81;100562.44;5057029;28;45541;-74
2023/06/29 10:58:24;;;;;;;;;11.00;10.00;;;;;31.01;44.32;100556.78;5016534;28;45580;-74
2023/06/29 11:00:51;;;;;;;;;10.00;10.00;;;;;30.97;45.68;100562.44;5057023;28;45470;-74
2023/06/29 11:03:18;;;;;;;;;8.33;8.00;;;;;30.94;46.38;100574.28;5057239;28;45572;-73
2023/06/29 11:05:50;;;;;;;;;6.00;6.00;;;;;30.68;45.24;100562.13;5052713;28;45517;-73
2023/06/29 11:08:16;;;;;;;;;9.00;9.00;;;;;30.52;44.83;100568.38;5057580;28;45422;-74
2023/06/29 11:10:42;;;;;;;;;8.00;7.00;;;;;30.20;44.41;100580.81;5057716;28;45434;-73
2023/06/29 11:13:09;;;;;;;;;8.00;8.00;;;;;30.01;44.96;100577.31;5039995;28;45275;-73
2023/06/29 11:15:35;;;;;;;;;8.33;7.67;;;;;29.85;45.27;100559.22;5058424;28;45573;-73
2023/06/29 11:18:07;;;;;;;;;7.67;7.00;;;;;29.70;46.00;100566.19;5057864;28;46111;-73
2023/06/29 11:20:37;;;;;;;;;9.33;8.33;;;;;29.65;46.68;100560.19;5057587;28;45347;-74